Fallbrook (230, 1234, 239, RB1) Station Data

Red Flag Warning: No
Fire Weather Zone: 250
SDGE Region: North East
Lat/Lon: 33.355/-117.167

Observations

Time Wind Speed/Gust Temp(F) RH Fuel Moist Fuel Temp(F) Dewpt(F) Tmax(F) Tmin(F) Accum Precip 10-min Precip SL Press(mb)
2/27 11:40pm 229 6 G 14 50° 100% - - 50° 54.8° 44.1° - - -
2/27 11:20pm 204 6 G 12 50° 100% - - 50° 54.8° 44.1° - - -
2/27 11:10pm 189 6 G 10 50° 100% - - 50° 54.8° 44.1° - - -
2/27 11:00pm 176 5 G 8 50° 100% - - 50° 54.8° 44.1° - - -
2/27 10:50pm 174 5 G 7 50° 100% - - 50° 54.8° 44.1° - - -
2/27 10:40pm 162 3 G 6 50° 100% - - 50° 54.8° 44.1° - - -
2/27 10:30pm 217 4 G 6 51° 100% - - 50° 54.8° 44.1° - - -
2/27 10:20pm 202 3 G 5 50° 100% - - 50° 54.8° 44.1° - - -
2/27 10:10pm 218 3 G 9 50° 100% - - 50° 54.8° 44.1° - - -
2/27 10:00pm 241 5 G 8 51° 100% - - 51° 54.8° 44.1° - - -
2/27 9:50pm 183 2 G 5 51° 100% - - 51° 54.8° 44.1° - - -
2/27 9:40pm 211 3 G 5 51° 100% - - 51° 54.8° 44.1° - - -
2/27 9:30pm 172 2 G 6 51° 100% - - 51° 54.8° 44.1° - - -
2/27 9:20pm 222 4 G 7 51° 100% - - 51° 54.8° 44.1° - - -
2/27 9:10pm 238 5 G 9 51° 100% - - 51° 54.8° 44.1° - - -
2/27 9:00pm 236 5 G 7 51° 100% - - 51° 54.8° 44.1° - - -
2/27 8:50pm 234 4 G 7 51° 100% - - 51° 54.8° 44.1° - - -
2/27 8:40pm 228 4 G 7 51° 100% - - 51° 54.8° 44.1° - - -
2/27 8:30pm 221 4 G 6 51° 100% - - 51° 54.8° 44.1° - - -
2/27 8:20pm 197 3 G 5 51° 100% - - 51° 54.8° 44.1° - - -
2/27 8:10pm 208 2 G 4 51° 100% - - 51° 54.8° 44.1° - - -
2/27 8:00pm 188 1 G 3 51° 100% - - 51° 54.8° 44.1° - - -
2/27 7:50pm 114 1 G 3 51° 100% - - 51° 54.8° 44.1° - - -
2/27 7:40pm 225 2 G 4 51° 100% - - 51° 54.8° 44.1° - - -
2/27 7:30pm 225 5 G 9 51° 100% - - 51° 54.8° 44.1° - - -
2/27 7:20pm 232 7 G 11 51° 100% - - 51° 54.8° 44.1° - - -
2/27 7:10pm 232 6 G 9 52° 100% - - 52° 54.8° 44.1° - - -
2/27 7:00pm 208 4 G 7 52° 100% - - 52° 54.8° 44.1° - - -
2/27 6:50pm 207 5 G 8 52° 100% - - 52° 54.8° 44.1° - - -
2/27 6:40pm 209 5 G 9 52° 100% - - 52° 54.8° 44.1° - - -
2/27 6:30pm 224 7 G 12 52° 100% - - 52° 54.8° 44.1° - - -
2/27 6:20pm 223 7 G 15 52° 100% - - 52° 54.8° 44.1° - - -
2/27 6:10pm 212 8 G 15 52° 100% - - 52° 54.8° 44.1° - - -
2/27 6:00pm 208 8 G 17 52° 100% - - 52° 54.8° 44.1° - - -
2/27 5:50pm 190 3 G 7 52° 100% - - 52° 54.8° 44.1° - - -
2/27 5:40pm 229 7 G 15 52° 100% - - 52° 54.8° 44.1° - - -
2/27 5:30pm 226 9 G 15 52° 100% - - 52° 54.8° 44.1° - - -
2/27 5:20pm 227 9 G 17 53° 100% - - 52° 54.8° 44.1° - - -
2/27 5:10pm 216 10 G 18 53° 100% - - 53° 54.8° 44.1° - - -
2/27 5:00pm 210 10 G 17 53° 100% - - 53° 54.8° 44.1° - - -
2/27 4:50pm 216 9 G 18 53° 100% - - 53° 54.8° 44.1° - - -
2/27 4:40pm 201 14 G 24 53° 100% - - 53° 54.8° 44.1° - - -
2/27 4:30pm 198 12 G 22 53° 100% - - 53° 54.8° 44.1° - - -
2/27 4:20pm 201 13 G 24 53° 100% - - 53° 54.8° 44.1° - - -
2/27 4:10pm 202 16 G 31 53° 100% - - 53° 54.8° 44.1° - - -
2/27 4:00pm 203 15 G 26 53° 100% - - 53° 54.8° 44.1° - - -
2/27 3:50pm 202 16 G 25 53° 100% - - 53° 54.8° 44.1° - - -
2/27 3:40pm 199 19 G 30 53° 100% - - 53° 54.8° 44.1° - - -
2/27 3:30pm 202 18 G 30 53° 99% - - 53° 54.8° 44.1° - - -
2/27 3:20pm 203 15 G 25 53° 100% - - 53° 54.8° 44.1° - - -
2/27 3:10pm 196 17 G 28 53° 99% - - 53° 54.8° 44.1° - - -
2/27 3:00pm 196 19 G 34 53° 100% - - 53° 54.8° 44.1° - - -
2/27 2:50pm 200 17 G 27 54° 100% - - 53° 54.8° 44.1° - - -
2/27 2:40pm 224 10 G 24 53° 100% - - 53° 54.8° 44.1° - - -
2/27 2:30pm 229 13 G 20 54° 100% - - 54° 54.8° 44.1° - - -
2/27 2:20pm 210 12 G 25 54° 100% - - 54° 54.8° 44.1° - - -
2/27 2:10pm 200 14 G 27 54° 100% - - 54° 54.8° 44.1° - - -
2/27 2:00pm 195 16 G 24 54° 100% - - 54° 54.8° 44.1° - - -
2/27 1:50pm 196 15 G 26 54° 100% - - 54° 54.8° 44.1° - - -
2/27 1:40pm 195 16 G 23 54° 100% - - 54° 54.8° 44.1° - - -
2/27 1:30pm 198 14 G 24 54° 100% - - 54° 54.8° 44.1° - - -
2/27 1:20pm 201 16 G 26 54° 100% - - 54° 54.8° 44.1° - - -
2/27 1:10pm 195 18 G 29 54° 99% - - 54° 54.7° 44.1° - - -
2/27 1:00pm 193 15 G 25 54° 100% - - 54° 54.6° 44.1° - - -
2/27 12:50pm 185 11 G 19 54° 100% - - 54° 54.5° 44.1° - - -
2/27 12:40pm 166 9 G 15 54° 100% - - 53° 54.3° 44.1° - - -
2/27 12:30pm 175 8 G 19 53° 99% - - 53° 54.3° 44.1° - - -
2/27 12:20pm 194 10 G 15 53° 99% - - 53° 54.3° 44.1° - - -
2/27 12:10pm 196 11 G 19 53° 99% - - 53° 54.3° 44.1° - - -
2/27 12:00pm 194 12 G 21 54° 99% - - 53° 54.3° 44.1° - - -
2/27 11:50am 196 10 G 16 54° 100% - - 54° 54.3° 44.1° - - -
2/27 11:40am 194 11 G 16 54° 100% - - 54° 54.3° 44.1° - - -
2/27 11:30am 174 11 G 22 54° 100% - - 54° 54.3° 44.1° - - -
2/27 11:20am 188 12 G 20 54° 100% - - 54° 54.3° 44.1° - - -
2/27 11:10am 194 13 G 22 54° 100% - - 53° 54.1° 44.1° - - -
2/27 11:00am 196 10 G 18 53° 100% - - 53° 53.8° 44.1° - - -
2/27 10:50am 192 10 G 16 53° 100% - - 53° 53.3° 44.1° - - -
2/27 10:40am 200 7 G 13 53° 100% - - 53° 53.3° 44.1° - - -
2/27 10:30am 203 6 G 11 52° 99% - - 52° 52.9° 44.1° - - -
2/27 10:20am 198 5 G 9 52° 99% - - 52° 52.8° 44.1° - - -
2/27 10:10am 201 5 G 8 51° 99% - - 51° 52.3° 44.1° - - -
2/27 10:00am 182 4 G 8 51° 99% - - 51° 52.3° 44.1° - - -
2/27 9:50am 187 4 G 8 51° 99% - - 51° 51.7° 44.1° - - -
2/27 9:40am 287 2 G 4 50° 99% - - 50° 51.1° 44.1° - - -
2/27 9:30am 357 1 G 3 50° 99% - - 50° 51.1° 44.1° - - -
2/27 9:20am 86 1 G 3 50° 99% - - 50° 50.9° 44.1° - - -
2/27 9:10am 31 2 G 4 50° 99% - - 49° 50.6° 44.1° - - -
2/27 9:00am 30 2 G 5 49° 99% - - 49° 49.7° 44.1° - - -
2/27 8:50am 358 3 G 6 48° 99% - - 48° 48.9° 44.1° - - -
2/27 8:40am 8 6 G 9 48° 99% - - 48° 48.9° 44.1° - - -
2/27 8:30am 15 4 G 5 48° 99% - - 48° 48.9° 44.1° - - -
2/27 8:20am 17 5 G 6 48° 99% - - 47° 48.9° 44.1° - - -
2/27 8:10am 34 4 G 6 47° 99% - - 47° 48.9° 44.1° - - -
2/27 8:00am 68 4 G 5 48° 99% - - 48° 48.9° 44.1° - - -
2/27 7:50am 18 4 G 6 47° 99% - - 47° 48.5° 44.1° - - -
2/27 7:40am 13 6 G 8 46° 99% - - 46° 47.9° 44.1° - - -
2/27 7:30am 358 6 G 8 46° 99% - - 46° 47.9° 44.1° - - -
2/27 7:20am 1 6 G 7 46° 99% - - 45° 47.9° 44.1° - - -
2/27 7:10am 2 7 G 11 45° 99% - - 45° 47.9° 44.1° - - -
2/27 7:00am 3 8 G 12 45° 99% - - 45° 47.9° 44.1° - - -
2/27 6:50am 358 8 G 12 45° 99% - - 45° 47.9° 44.1° - - -
2/27 6:40am 357 8 G 12 45° 99% - - 45° 47.9° 44.1° - - -
2/27 6:30am 358 9 G 12 45° 99% - - 45° 47.9° 44.1° - - -
2/27 6:20am 2 9 G 12 45° 99% - - 45° 47.9° 44.1° - - -
2/27 6:10am 360 9 G 15 45° 99% - - 45° 47.9° 44.1° - - -
2/27 6:00am 359 10 G 16 45° 99% - - 45° 47.9° 44.1° - - -
2/27 5:50am 357 9 G 12 45° 99% - - 45° 47.9° 44.1° - - -
2/27 5:40am 351 7 G 11 45° 99% - - 44° 47.9° 44.1° - - -
2/27 5:30am 354 6 G 9 45° 99% - - 44° 47.9° 44.1° - - -
2/27 5:20am 358 7 G 10 45° 99% - - 44° 47.9° 44.1° - - -
2/27 5:10am 354 8 G 10 45° 98% - - 44° 47.9° 44.1° - - -
2/27 5:00am 356 9 G 14 45° 98% - - 44° 47.9° 44.1° - - -
2/27 4:50am 357 10 G 15 45° 99% - - 44° 47.9° 44.1° - - -
2/27 4:40am 356 9 G 14 44° 99% - - 44° 47.9° 44.1° - - -
2/27 4:30am 355 9 G 14 44° 99% - - 44° 47.9° 44.1° - - -
2/27 4:20am 359 9 G 16 45° 99% - - 44° 47.9° 44.1° - - -
2/27 4:10am 349 8 G 11 45° 99% - - 44° 47.9° 44.1° - - -
2/27 4:00am 357 8 G 10 45° 98% - - 44° 47.9° 44.1° - - -
2/27 3:50am 4 8 G 11 44° 98% - - 44° 47.9° 44.1° - - -
2/27 3:40am 4 8 G 11 45° 98% - - 44° 47.9° 44.1° - - -
2/27 3:30am 2 8 G 10 44° 98% - - 44° 47.9° 44.1° - - -
2/27 3:20am 10 8 G 11 45° 98% - - 44° 47.9° 44.1° - - -
2/27 3:10am 6 9 G 12 45° 98% - - 44° 47.9° 44.1° - - -
2/27 3:00am 1 7 G 10 44° 97% - - 44° 47.9° 44.1° - - -
2/27 2:50am 350 6 G 9 44° 96% - - 43° 47.9° 44.1° - - -
2/27 2:40am 345 4 G 6 45° 94% - - 43° 47.9° 44.3° - - -
2/27 2:30am 352 4 G 5 45° 90% - - 42° 47.9° 44.4° - - -
2/27 2:20am 41 3 G 5 46° 86% - - 42° 47.9° 44.6° - - -
2/27 2:10am 61 4 G 5 46° 81% - - 41° 47.9° 45.6° - - -
2/27 2:00am 30 4 G 4 47° 79% - - 40° 47.9° 45.7° - - -
2/27 1:50am 12 3 G 4 47° 77% - - 40° 47.9° 45.7° - - -
2/27 1:40am 10 3 G 4 47° 76% - - 40° 47.9° 45.7° - - -
2/27 1:30am 6 4 G 5 47° 74% - - 39° 47.9° 45.7° - - -
2/27 1:20am 356 3 G 5 47° 76% - - 40° 47.9° 45.7° - - -
2/27 1:10am 359 4 G 5 46° 81% - - 41° 47.9° 45.7° - - -
2/27 1:00am 23 4 G 4 47° 76% - - 40° 47.9° 45.7° - - -
2/27 12:50am 74 2 G 4 47° 77% - - 40° 47.7° 45.7° - - -
2/27 12:40am 93 0 G 2 46° 82% - - 41° 47.2° 45.7° - - -
2/27 12:30am 220 1 G 3 46° 81% - - 41° 47.2° 45.7° - - -
2/27 12:20am 128 4 G 6 47° 79% - - 40° 47.2° 45.7° - - -
2/27 12:10am 126 5 G 8 46° 79% - - 40° 47.2° 45.7° - - -
2/27 12:00am 136 1 G 5 46° 84% - - 42° 54.2° 45° - - -
2/26 11:50pm 87 4 G 6 47° 84% - - 42° 54.2° 45° - - -
2/26 11:40pm 114 4 G 5 47° 82% - - 42° 54.2° 45° - - -
2/26 11:30pm 120 4 G 5 48° 81% - - 42° 54.2° 45° - - -
2/26 11:20pm 144 4 G 5 48° 80% - - 42° 54.2° 45° - - -
2/26 11:10pm 141 4 G 6 47° 82% - - 42° 54.2° 45° - - -
2/26 11:00pm 149 4 G 6 48° 83% - - 43° 54.2° 45° - - -
2/26 10:50pm 144 4 G 7 48° 82% - - 43° 54.2° 45° - - -
2/26 10:40pm 128 4 G 6 48° 82% - - 43° 54.2° 45° - - -
2/26 10:30pm 129 5 G 8 48° 84% - - 43° 54.2° 45° - - -
2/26 10:20pm 117 5 G 7 48° 84% - - 43° 54.2° 45° - - -
2/26 10:10pm 128 5 G 7 48° 84% - - 43° 54.2° 45° - - -
2/26 10:00pm 126 4 G 7 48° 85% - - 43° 54.2° 45° - - -
2/26 9:50pm 115 4 G 5 47° 87% - - 44° 54.2° 45° - - -
2/26 9:40pm 97 3 G 5 47° 87% - - 44° 54.2° 45° - - -
2/26 9:30pm 105 4 G 6 47° 88% - - 44° 54.2° 45° - - -
2/26 9:20pm 112 5 G 6 48° 87% - - 44° 54.2° 45° - - -
2/26 9:10pm 113 4 G 6 47° 89% - - 44° 54.2° 45° - - -
2/26 9:00pm 90 4 G 6 48° 89% - - 44° 54.2° 45° - - -
2/26 8:50pm 101 3 G 4 48° 89% - - 45° 54.2° 45° - - -
2/26 8:40pm 121 4 G 6 48° 87% - - 44° 54.2° 45° - - -
2/26 8:30pm 137 4 G 6 48° 86% - - 44° 54.2° 45° - - -
2/26 8:20pm 153 3 G 4 48° 86% - - 44° 54.2° 45° - - -
2/26 8:10pm 137 3 G 4 48° 86% - - 44° 54.2° 45° - - -
2/26 8:00pm 156 3 G 5 48° 86% - - 44° 54.2° 45° - - -
2/26 7:50pm 166 3 G 4 48° 87% - - 45° 54.2° 45° - - -
2/26 7:40pm 164 3 G 4 48° 86% - - 44° 54.2° 45° - - -
2/26 7:30pm 179 3 G 4 48° 84% - - 44° 54.2° 45° - - -
2/26 7:20pm 187 4 G 4 48° 84% - - 44° 54.2° 45° - - -
2/26 7:10pm 173 3 G 4 48° 84% - - 44° 54.2° 45° - - -
2/26 7:00pm 168 3 G 4 48° 86% - - 44° 54.2° 45° - - -
2/26 6:50pm 180 3 G 6 48° 85% - - 44° 54.2° 45° - - -
2/26 6:40pm 203 4 G 6 48° 85% - - 44° 54.2° 45° - - -
2/26 6:30pm 227 5 G 9 49° 85% - - 44° 54.2° 45° - - -
2/26 6:20pm 231 6 G 9 49° 84% - - 44° 54.2° 45° - - -
2/26 6:10pm 222 6 G 8 49° 83% - - 44° 54.2° 45° - - -
2/26 6:00pm 227 6 G 9 49° 84% - - 45° 54.2° 45° - - -
2/26 5:50pm 228 7 G 12 50° 83% - - 45° 54.2° 45° - - -
2/26 5:40pm 232 8 G 12 50° 87% - - 46° 54.2° 45° - - -
2/26 5:30pm 215 5 G 9 50° 92% - - 48° 54.2° 45° - - -
2/26 5:20pm 206 5 G 9 50° 94% - - 48° 54.2° 45° - - -
2/26 5:10pm 190 6 G 10 50° 94% - - 48° 54.2° 45° - - -
2/26 5:00pm 191 4 G 7 50° 94% - - 48° 54.2° 45° - - -